PWSweather.com
Personal Weather Stations
Station Observations
J24K28P63
Vysocina, PocatkyCZ 39464

VysocinaPocatkyCZ 39464

Lat: 49.2594238, Lon: 15.2331769

Elevation: 2011

Station Type: Vantage Pro2+

http://meteo-jirkalina.com

High Low Average
Temperature 71.1°F21.7°C 48.6°F9.2°C 61.0°F16.1°C
Dew Point 56.4°F13.6°C 41.8°F5.4°C 51.6°F10.9°C
Winds 9.0 mph 14.5 kmh Calm Calm 3.0 mph WSW4.8 kmh WSW
Wind Gusts 12.0 mph19.3 kmh -- 6.0 mph9.7 kmh
Humidity 100% 39% 73%
Pressure 30.07 in1018.3 mb 29.96 in1014.6 mb -
Precipitation 0.02 in0.5 mm - -
Hour Temp Dew Point Humidity Winds Wind Gusts Pressure Precip Precip Rate Daily Precip Total
12:00 AM 51.1°F10.6°C 50.8°F10.4°C 99% Calm Calm -- 29.96 in1014.6 mb - 0.01 in0.3 mm 0.01 in0.3 mm
12:30 AM 50.7°F10.4°C 50.4°F10.2°C 99% Calm Calm -- 29.96 in1014.6 mb - 0.01 in0.3 mm 0.02 in0.5 mm
01:00 AM 50.5°F10.3°C 50.2°F10.1°C 99% Calm Calm -- 29.96 in1014.6 mb - 0.00 in0.0 mm 0.02 in0.5 mm
01:30 AM 50.4°F10.2°C 50.1°F10.1°C 99% 0.3 mph W0.5 kmh W 1.0 mph1.6 kmh 29.96 in1014.6 mb - 0.00 in0.0 mm 0.02 in0.5 mm
02:00 AM 50.1°F10.1°C 49.8°F9.9°C 99% 0.2 mph W0.3 kmh W 2.0 mph3.2 kmh 29.96 in1014.6 mb - 0.00 in0.0 mm 0.02 in0.5 mm
02:30 AM 50.2°F10.1°C 49.9°F9.9°C 99% Calm Calm -- 29.96 in1014.6 mb - 0.00 in0.0 mm 0.02 in0.5 mm
03:00 AM 50.1°F10.1°C 50.1°F10.1°C 100% 0.9 mph W1.4 kmh W 2.0 mph3.2 kmh 29.96 in1014.6 mb - 0.00 in0.0 mm 0.02 in0.5 mm
03:30 AM 49.9°F9.9°C 49.9°F9.9°C 100% Calm Calm 1.0 mph1.6 kmh 29.96 in1014.6 mb - 0.00 in0.0 mm 0.02 in0.5 mm
04:00 AM 49.6°F9.8°C 49.6°F9.8°C 100% 1.2 mph W1.9 kmh W 5.0 mph8.0 kmh 29.97 in1014.9 mb - 0.00 in0.0 mm 0.02 in0.5 mm
04:30 AM 49.5°F9.7°C 49.5°F9.7°C 100% Calm Calm -- 29.97 in1014.9 mb - 0.00 in0.0 mm 0.02 in0.5 mm
04:40 AM 48.6°F9.2°C 47.0°F8.3°C 94% 5.0 mph W8.0 kmh W 7.0 mph11.3 kmh 30.02 in1016.6 mb - 0.00 in0.0 mm 0.02 in0.5 mm
04:50 AM 48.6°F9.2°C 47.2°F8.4°C 95% 2.0 mph W3.2 kmh W 3.0 mph4.8 kmh 30.03 in1016.9 mb - 0.00 in0.0 mm 0.02 in0.5 mm
05:00 AM 48.9°F9.4°C 47.5°F8.6°C 95% 3.0 mph WSW4.8 kmh WSW 7.0 mph11.3 kmh 30.02 in1016.6 mb - 0.00 in0.0 mm 0.02 in0.5 mm
05:10 AM 49.0°F9.4°C 47.6°F8.7°C 95% 3.0 mph WSW4.8 kmh WSW 5.0 mph8.0 kmh 30.03 in1016.9 mb - 0.00 in0.0 mm 0.02 in0.5 mm
05:20 AM 48.8°F9.3°C 47.5°F8.6°C 95% 2.0 mph WSW3.2 kmh WSW 3.0 mph4.8 kmh 30.03 in1016.9 mb - 0.00 in0.0 mm 0.02 in0.5 mm
05:30 AM 49.0°F9.4°C 47.6°F8.7°C 95% 3.0 mph WSW4.8 kmh WSW 7.0 mph11.3 kmh 30.03 in1016.9 mb - 0.00 in0.0 mm 0.02 in0.5 mm
05:40 AM 49.5°F9.7°C 48.1°F8.9°C 95% 3.0 mph W4.8 kmh W 3.0 mph4.8 kmh 30.04 in1017.3 mb - 0.00 in0.0 mm 0.02 in0.5 mm
05:50 AM 50.4°F10.2°C 48.7°F9.3°C 94% 3.0 mph W4.8 kmh W 6.0 mph9.7 kmh 30.04 in1017.3 mb - 0.00 in0.0 mm 0.02 in0.5 mm
06:00 AM 51.9°F11.1°C 49.9°F9.9°C 93% 2.0 mph W3.2 kmh W 6.0 mph9.7 kmh 30.04 in1017.3 mb - 0.00 in0.0 mm 0.02 in0.5 mm
06:10 AM 53.2°F11.8°C 50.6°F10.3°C 91% 6.0 mph W9.7 kmh W 8.0 mph12.9 kmh 30.04 in1017.3 mb - 0.00 in0.0 mm 0.02 in0.5 mm
06:20 AM 54.1°F12.3°C 50.6°F10.3°C 88% 2.0 mph W3.2 kmh W 7.0 mph11.3 kmh 30.04 in1017.3 mb - 0.00 in0.0 mm 0.02 in0.5 mm
06:30 AM 51.0°F10.6°C 51.0°F10.6°C 100% 1.2 mph W1.9 kmh W 3.0 mph4.8 kmh 29.99 in1015.6 mb - 0.00 in0.0 mm 0.02 in0.5 mm
06:40 AM 54.9°F12.7°C 50.5°F10.3°C 85% 6.0 mph WNW9.7 kmh WNW 8.0 mph12.9 kmh 30.05 in1017.6 mb - 0.00 in0.0 mm 0.02 in0.5 mm
06:50 AM 55.6°F13.1°C 50.5°F10.3°C 83% 5.0 mph NW8.0 kmh NW 7.0 mph11.3 kmh 30.05 in1017.6 mb - 0.00 in0.0 mm 0.02 in0.5 mm
07:00 AM 56.8°F13.8°C 51.4°F10.8°C 82% 6.0 mph W9.7 kmh W 8.0 mph12.9 kmh 30.05 in1017.6 mb - 0.00 in0.0 mm 0.02 in0.5 mm
07:10 AM 56.9°F13.8°C 50.8°F10.4°C 80% 6.0 mph W9.7 kmh W 9.0 mph14.5 kmh 30.05 in1017.6 mb - 0.00 in0.0 mm 0.02 in0.5 mm
07:20 AM 57.8°F14.3°C 52.0°F11.1°C 81% 5.0 mph NNW8.0 kmh NNW 8.0 mph12.9 kmh 30.05 in1017.6 mb - 0.00 in0.0 mm 0.02 in0.5 mm
07:30 AM 58.6°F14.8°C 51.7°F10.9°C 78% 6.0 mph WNW9.7 kmh WNW 8.0 mph12.9 kmh 30.05 in1017.6 mb - 0.00 in0.0 mm 0.02 in0.5 mm
07:40 AM 58.7°F14.8°C 51.1°F10.6°C 76% 5.0 mph NW8.0 kmh NW 8.0 mph12.9 kmh 30.05 in1017.6 mb - 0.00 in0.0 mm 0.02 in0.5 mm
07:50 AM 58.7°F14.8°C 51.5°F10.8°C 77% 3.0 mph NNW4.8 kmh NNW 6.0 mph9.7 kmh 30.06 in1017.9 mb - 0.00 in0.0 mm 0.02 in0.5 mm
08:00 AM 57.4°F14.1°C 50.9°F10.5°C 79% 5.0 mph NW8.0 kmh NW 6.0 mph9.7 kmh 30.06 in1017.9 mb - 0.00 in0.0 mm 0.02 in0.5 mm
08:10 AM 57.9°F14.4°C 51.1°F10.6°C 78% 3.0 mph NW4.8 kmh NW 5.0 mph8.0 kmh 30.06 in1017.9 mb - 0.00 in0.0 mm 0.02 in0.5 mm
08:20 AM 60.4°F15.8°C 52.4°F11.3°C 75% 7.0 mph NW11.3 kmh NW 9.0 mph14.5 kmh 30.06 in1017.9 mb - 0.00 in0.0 mm 0.02 in0.5 mm
08:30 AM 60.4°F15.8°C 51.7°F10.9°C 73% 5.0 mph NW8.0 kmh NW 8.0 mph12.9 kmh 30.06 in1017.9 mb - 0.00 in0.0 mm 0.02 in0.5 mm
08:40 AM 60.6°F15.9°C 52.7°F11.5°C 75% 6.0 mph NW9.7 kmh NW 9.0 mph14.5 kmh 30.06 in1017.9 mb - 0.00 in0.0 mm 0.02 in0.5 mm
08:50 AM 60.7°F15.9°C 52.4°F11.3°C 74% 6.0 mph WNW9.7 kmh WNW 10.0 mph16.1 kmh 30.07 in1018.3 mb - 0.00 in0.0 mm 0.02 in0.5 mm
09:00 AM 61.4°F16.3°C 52.7°F11.5°C 73% 5.0 mph N8.0 kmh N 12.0 mph19.3 kmh 30.07 in1018.3 mb - 0.00 in0.0 mm 0.02 in0.5 mm
09:10 AM 61.5°F16.4°C 52.4°F11.3°C 72% 5.0 mph NNW8.0 kmh NNW 8.0 mph12.9 kmh 30.07 in1018.3 mb - 0.00 in0.0 mm 0.02 in0.5 mm
09:20 AM 61.6°F16.4°C 52.8°F11.6°C 73% 2.0 mph NW3.2 kmh NW 3.0 mph4.8 kmh 30.06 in1017.9 mb - 0.00 in0.0 mm 0.02 in0.5 mm
09:30 AM 62.0°F16.7°C 52.9°F11.6°C 72% 3.0 mph WNW4.8 kmh WNW 8.0 mph12.9 kmh 30.07 in1018.3 mb - 0.00 in0.0 mm 0.02 in0.5 mm
09:40 AM 62.5°F16.9°C 52.6°F11.4°C 70% 6.0 mph WNW9.7 kmh WNW 10.0 mph16.1 kmh 30.07 in1018.3 mb - 0.00 in0.0 mm 0.02 in0.5 mm
09:50 AM 62.5°F16.9°C 52.9°F11.6°C 71% 9.0 mph WSW14.5 kmh WSW 10.0 mph16.1 kmh 30.06 in1017.9 mb - 0.00 in0.0 mm 0.02 in0.5 mm
10:00 AM 63.0°F17.2°C 53.1°F11.7°C 70% 5.0 mph W8.0 kmh W 7.0 mph11.3 kmh 30.07 in1018.3 mb - 0.00 in0.0 mm 0.02 in0.5 mm
10:10 AM 63.5°F17.5°C 53.2°F11.8°C 69% 7.0 mph WNW11.3 kmh WNW 9.0 mph14.5 kmh 30.07 in1018.3 mb - 0.00 in0.0 mm 0.02 in0.5 mm
10:20 AM 63.0°F17.2°C 53.1°F11.7°C 70% 5.0 mph WNW8.0 kmh WNW 12.0 mph19.3 kmh 30.07 in1018.3 mb - 0.00 in0.0 mm 0.02 in0.5 mm
10:30 AM 64.0°F17.8°C 53.6°F12.0°C 69% 6.0 mph W9.7 kmh W 12.0 mph19.3 kmh 30.07 in1018.3 mb - 0.00 in0.0 mm 0.02 in0.5 mm
10:40 AM 63.8°F17.7°C 53.8°F12.1°C 70% 6.0 mph W9.7 kmh W 9.0 mph14.5 kmh 30.07 in1018.3 mb - 0.00 in0.0 mm 0.02 in0.5 mm
10:50 AM 65.3°F18.5°C 54.5°F12.5°C 68% 6.0 mph W9.7 kmh W 7.0 mph11.3 kmh 30.07 in1018.3 mb - 0.00 in0.0 mm 0.02 in0.5 mm
11:00 AM 65.9°F18.8°C 53.8°F12.1°C 65% 7.0 mph NNW11.3 kmh NNW 12.0 mph19.3 kmh 30.07 in1018.3 mb - 0.00 in0.0 mm 0.02 in0.5 mm
11:10 AM 65.9°F18.8°C 53.8°F12.1°C 65% 6.0 mph WNW9.7 kmh WNW 7.0 mph11.3 kmh 30.07 in1018.3 mb - 0.00 in0.0 mm 0.02 in0.5 mm
11:20 AM 65.5°F18.6°C 55.8°F13.2°C 71% 5.0 mph WNW8.0 kmh WNW 7.0 mph11.3 kmh 30.07 in1018.3 mb - 0.00 in0.0 mm 0.02 in0.5 mm
11:30 AM 67.5°F19.7°C 54.9°F12.7°C 64% 8.0 mph WNW12.9 kmh WNW 12.0 mph19.3 kmh 30.07 in1018.3 mb - 0.00 in0.0 mm 0.02 in0.5 mm
11:40 AM 67.5°F19.7°C 55.7°F13.2°C 66% 7.0 mph WNW11.3 kmh WNW 9.0 mph14.5 kmh 30.07 in1018.3 mb - 0.00 in0.0 mm 0.02 in0.5 mm
11:50 AM 67.0°F19.4°C 54.8°F12.7°C 65% 5.0 mph NW8.0 kmh NW 8.0 mph12.9 kmh 30.07 in1018.3 mb - 0.00 in0.0 mm 0.02 in0.5 mm
12:00 PM 67.2°F19.6°C 55.9°F13.3°C 67% 6.0 mph W9.7 kmh W 8.0 mph12.9 kmh 30.07 in1018.3 mb - 0.00 in0.0 mm 0.02 in0.5 mm
12:10 PM 67.8°F19.9°C 55.6°F13.1°C 65% 6.0 mph NW9.7 kmh NW 7.0 mph11.3 kmh 30.06 in1017.9 mb - 0.00 in0.0 mm 0.02 in0.5 mm
12:20 PM 67.6°F19.8°C 55.9°F13.3°C 66% 6.0 mph NW9.7 kmh NW 10.0 mph16.1 kmh 30.06 in1017.9 mb - 0.00 in0.0 mm 0.02 in0.5 mm
12:30 PM 68.0°F20.0°C 55.4°F13.0°C 64% 5.0 mph NNW8.0 kmh NNW 8.0 mph12.9 kmh 30.06 in1017.9 mb - 0.00 in0.0 mm 0.02 in0.5 mm
12:40 PM 67.8°F19.9°C 56.4°F13.6°C 67% 3.0 mph WNW4.8 kmh WNW 10.0 mph16.1 kmh 30.06 in1017.9 mb - 0.00 in0.0 mm 0.02 in0.5 mm
12:50 PM 68.4°F20.2°C 54.4°F12.4°C 61% 3.0 mph W4.8 kmh W 8.0 mph12.9 kmh 30.06 in1017.9 mb - 0.00 in0.0 mm 0.02 in0.5 mm
01:00 PM 68.6°F20.3°C 54.6°F12.6°C 61% 6.0 mph NW9.7 kmh NW 10.0 mph16.1 kmh 30.05 in1017.6 mb - 0.00 in0.0 mm 0.02 in0.5 mm
01:10 PM 68.3°F20.2°C 53.9°F12.2°C 60% 5.0 mph WNW8.0 kmh WNW 8.0 mph12.9 kmh 30.05 in1017.6 mb - 0.00 in0.0 mm 0.02 in0.5 mm
01:20 PM 69.0°F20.6°C 54.5°F12.5°C 60% 8.0 mph W12.9 kmh W 9.0 mph14.5 kmh 30.05 in1017.6 mb - 0.00 in0.0 mm 0.02 in0.5 mm
01:30 PM 68.6°F20.3°C 55.0°F12.8°C 62% 3.0 mph NNW4.8 kmh NNW 8.0 mph12.9 kmh 30.05 in1017.6 mb - 0.00 in0.0 mm 0.02 in0.5 mm
01:40 PM 69.1°F20.6°C 55.0°F12.8°C 61% 6.0 mph W9.7 kmh W 8.0 mph12.9 kmh 30.05 in1017.6 mb - 0.00 in0.0 mm 0.02 in0.5 mm
01:50 PM 70.1°F21.2°C 56.0°F13.3°C 61% 7.0 mph NW11.3 kmh NW 10.0 mph16.1 kmh 30.05 in1017.6 mb - 0.00 in0.0 mm 0.02 in0.5 mm
02:00 PM 69.8°F21.0°C 55.3°F12.9°C 60% 5.0 mph WNW8.0 kmh WNW 8.0 mph12.9 kmh 30.05 in1017.6 mb - 0.00 in0.0 mm 0.02 in0.5 mm
02:10 PM 69.8°F21.0°C 55.3°F12.9°C 60% 3.0 mph W4.8 kmh W 7.0 mph11.3 kmh 30.04 in1017.3 mb - 0.00 in0.0 mm 0.02 in0.5 mm
02:20 PM 70.8°F21.6°C 55.3°F12.9°C 58% 6.0 mph WNW9.7 kmh WNW 10.0 mph16.1 kmh 30.04 in1017.3 mb - 0.00 in0.0 mm 0.02 in0.5 mm
02:30 PM 70.9°F21.6°C 55.4°F13.0°C 58% 5.0 mph NW8.0 kmh NW 10.0 mph16.1 kmh 30.04 in1017.3 mb - 0.00 in0.0 mm 0.02 in0.5 mm
02:40 PM 70.3°F21.3°C 54.8°F12.7°C 58% 3.0 mph NW4.8 kmh NW 8.0 mph12.9 kmh 30.04 in1017.3 mb - 0.00 in0.0 mm 0.02 in0.5 mm
02:50 PM 70.7°F21.5°C 54.2°F12.3°C 56% 5.0 mph NW8.0 kmh NW 10.0 mph16.1 kmh 30.04 in1017.3 mb - 0.00 in0.0 mm 0.02 in0.5 mm
03:00 PM 70.1°F21.2°C 54.6°F12.6°C 58% 5.0 mph NW8.0 kmh NW 6.0 mph9.7 kmh 30.04 in1017.3 mb - 0.00 in0.0 mm 0.02 in0.5 mm
03:10 PM 70.4°F21.3°C 54.4°F12.4°C 57% 5.0 mph W8.0 kmh W 7.0 mph11.3 kmh 30.03 in1016.9 mb - 0.00 in0.0 mm 0.02 in0.5 mm
03:20 PM 70.9°F21.6°C 55.4°F13.0°C 58% 6.0 mph NW9.7 kmh NW 8.0 mph12.9 kmh 30.04 in1017.3 mb - 0.00 in0.0 mm 0.02 in0.5 mm
03:30 PM 71.1°F21.7°C 54.6°F12.6°C 56% 5.0 mph NW8.0 kmh NW 5.0 mph8.0 kmh 30.04 in1017.3 mb - 0.00 in0.0 mm 0.02 in0.5 mm
03:40 PM 69.9°F21.1°C 54.9°F12.7°C 59% 2.0 mph NNW3.2 kmh NNW 6.0 mph9.7 kmh 30.03 in1016.9 mb - 0.00 in0.0 mm 0.02 in0.5 mm
03:50 PM 69.5°F20.8°C 54.1°F12.3°C 58% 6.0 mph NW9.7 kmh NW 8.0 mph12.9 kmh 30.03 in1016.9 mb - 0.00 in0.0 mm 0.02 in0.5 mm
04:00 PM 69.0°F20.6°C 53.6°F12.0°C 58% 2.0 mph NNW3.2 kmh NNW 3.0 mph4.8 kmh 30.03 in1016.9 mb - 0.00 in0.0 mm 0.02 in0.5 mm
04:10 PM 69.6°F20.9°C 55.1°F12.8°C 60% 1.0 mph NW1.6 kmh NW 5.0 mph8.0 kmh 30.03 in1016.9 mb - 0.00 in0.0 mm 0.02 in0.5 mm
04:20 PM 69.3°F20.7°C 54.8°F12.7°C 60% 2.0 mph NW3.2 kmh NW 3.0 mph4.8 kmh 30.03 in1016.9 mb - 0.00 in0.0 mm 0.02 in0.5 mm
04:30 PM 68.9°F20.5°C 54.0°F12.2°C 59% 5.0 mph NW8.0 kmh NW 7.0 mph11.3 kmh 30.03 in1016.9 mb - 0.00 in0.0 mm 0.02 in0.5 mm
04:40 PM 68.5°F20.3°C 55.0°F12.8°C 62% 3.0 mph WNW4.8 kmh WNW 6.0 mph9.7 kmh 30.03 in1016.9 mb - 0.00 in0.0 mm 0.02 in0.5 mm
04:50 PM 68.3°F20.2°C 54.3°F12.4°C 61% 6.0 mph NNW9.7 kmh NNW 10.0 mph16.1 kmh 30.03 in1016.9 mb - 0.00 in0.0 mm 0.02 in0.5 mm
05:00 PM 68.1°F20.1°C 54.6°F12.6°C 62% 5.0 mph NW8.0 kmh NW 10.0 mph16.1 kmh 30.03 in1016.9 mb - 0.00 in0.0 mm 0.02 in0.5 mm
05:10 PM 67.3°F19.6°C 54.3°F12.4°C 63% 5.0 mph NW8.0 kmh NW 8.0 mph12.9 kmh 30.03 in1016.9 mb - 0.00 in0.0 mm 0.02 in0.5 mm
05:30 PM 66.6°F19.2°C 54.0°F12.2°C 64% 6.0 mph NW9.7 kmh NW 9.0 mph14.5 kmh 30.03 in1016.9 mb - 0.00 in0.0 mm 0.02 in0.5 mm
05:40 PM 66.1°F18.9°C 54.0°F12.2°C 65% 3.0 mph NNW4.8 kmh NNW 6.0 mph9.7 kmh 30.03 in1016.9 mb - 0.00 in0.0 mm 0.02 in0.5 mm
05:50 PM 65.5°F18.6°C 53.4°F11.9°C 65% 3.0 mph NW4.8 kmh NW 7.0 mph11.3 kmh 30.03 in1016.9 mb - 0.00 in0.0 mm 0.02 in0.5 mm
06:00 PM 64.8°F18.2°C 53.6°F12.0°C 67% 3.0 mph NW4.8 kmh NW 8.0 mph12.9 kmh 30.03 in1016.9 mb - 0.00 in0.0 mm 0.02 in0.5 mm
06:10 PM 64.1°F17.8°C 53.3°F11.8°C 68% 5.0 mph NNW8.0 kmh NNW 7.0 mph11.3 kmh 30.03 in1016.9 mb - 0.00 in0.0 mm 0.02 in0.5 mm
06:20 PM 63.2°F17.3°C 53.3°F11.8°C 70% 5.0 mph NW8.0 kmh NW 9.0 mph14.5 kmh 30.04 in1017.3 mb - 0.00 in0.0 mm 0.02 in0.5 mm
06:30 PM 62.4°F16.9°C 52.5°F11.4°C 70% 1.0 mph NNW1.6 kmh NNW 3.0 mph4.8 kmh 30.04 in1017.3 mb - 0.00 in0.0 mm 0.02 in0.5 mm
06:40 PM 61.6°F16.4°C 52.5°F11.4°C 72% 1.0 mph NW1.6 kmh NW 2.0 mph3.2 kmh 30.04 in1017.3 mb - 0.00 in0.0 mm 0.02 in0.5 mm
06:50 PM 60.8°F16.0°C 51.7°F10.9°C 72% 1.0 mph N1.6 kmh N 2.0 mph3.2 kmh 30.04 in1017.3 mb - 0.00 in0.0 mm 0.02 in0.5 mm
07:00 PM 59.9°F15.5°C 51.2°F10.7°C 73% 2.0 mph NNW3.2 kmh NNW 2.0 mph3.2 kmh 30.05 in1017.6 mb - 0.00 in0.0 mm 0.02 in0.5 mm
07:10 PM 59.1°F15.1°C 51.2°F10.7°C 75% 3.0 mph NNW4.8 kmh NNW 3.0 mph4.8 kmh 30.05 in1017.6 mb - 0.00 in0.0 mm 0.02 in0.5 mm
07:20 PM 58.3°F14.6°C 50.4°F10.2°C 75% 2.0 mph NNW3.2 kmh NNW 3.0 mph4.8 kmh 30.06 in1017.9 mb - 0.00 in0.0 mm 0.02 in0.5 mm
07:30 PM 58.4°F14.7°C 47.5°F8.6°C 67% Calm Calm -- 29.98 in1015.2 mb - 0.00 in0.0 mm 0.02 in0.5 mm
08:00 PM 56.0°F13.3°C 49.9°F9.9°C 80% Calm Calm -- 30.00 in1015.9 mb - 0.00 in0.0 mm 0.02 in0.5 mm
08:30 PM 54.1°F12.3°C 49.7°F9.8°C 85% Calm Calm -- 30.00 in1015.9 mb - 0.00 in0.0 mm 0.02 in0.5 mm
09:00 PM 53.1°F11.7°C 49.9°F9.9°C 89% Calm Calm -- 30.01 in1016.3 mb - 0.00 in0.0 mm 0.02 in0.5 mm
09:30 PM 52.0°F11.1°C 49.7°F9.8°C 92% Calm Calm -- 30.02 in1016.6 mb - 0.00 in0.0 mm 0.02 in0.5 mm
10:00 PM 51.9°F11.1°C 49.9°F9.9°C 93% Calm Calm -- 30.02 in1016.6 mb - 0.00 in0.0 mm 0.02 in0.5 mm
10:30 PM 52.3°F11.3°C 50.6°F10.3°C 94% Calm Calm -- 30.03 in1016.9 mb - 0.00 in0.0 mm 0.02 in0.5 mm
11:00 PM 52.0°F11.1°C 50.3°F10.2°C 94% Calm Calm 3.0 mph4.8 kmh 30.03 in1016.9 mb - 0.00 in0.0 mm 0.02 in0.5 mm
11:30 PM 51.1°F10.6°C 49.4°F9.7°C 94% Calm Calm -- 30.03 in1016.9 mb - 0.00 in0.0 mm 0.02 in0.5 mm